Norway House Airport
CYNE : rendu visible

Aérodrome :











RETROUVEZ-NOUS SUR...

 
LOGIN :

S'inscrire | Disclaimer

   EN    FR    IT 

 









Légende :    VFR   VFR Marginal   IFR   IFR Intensif   IFR Très Intensif
Visi : 
Plafond : 
>= 8 km
>= 3000ft
5 à 8 km
1000 à 3000 ft
1500m à 5 km
500 à 1000 ft
800 à 1500m
200 à 500 ft
< 800m
< 200 ft
Symboles :   Orages  Brouillard  Fortes neiges  Fortes précipitations  Vent > 20 kt






- Altitude de l'aérodrome : 734 ft
- Code IATA : YNE


CYNE - Norway House

DERNIER METAR :
  • 191300Z AUTO 33005KT 9SM OVC007 M04/M04 A2963 RMK SLP048

METARs EXPIRÉS :
  • 191248Z AUTO 33006KT 9SM OVC007 M04/M04 A2962 RMK SLP047
  • 191230Z AUTO 32006KT 9SM -SN OVC007 M03/M04 A2962 RMK SLP046
  • 191200Z AUTO 32006KT 9SM BKN007 BKN049 OVC055 M03/M04 A2961 RMK SLP042
  • 191153Z AUTO 32006KT 9SM BKN007 BKN049 OVC055 M03/M04 A2961 RMK SLP042
  • 191147Z AUTO 32006KT 9SM SCT007 OVC055 M03/M04 A2961 RMK SLP042
  • 191113Z AUTO 33006KT 5SM -SN OVC055 M03/M03 A2959 RMK SLP036
  • 191053Z AUTO 33006KT 6SM -SN OVC060 M03/M03 A2959 RMK SLP035
  • 191038Z AUTO 33004KT 5SM -SN OVC060 M03/M03 A2958 RMK SLP034
  • 191034Z AUTO 33005KT 6SM -SN OVC060 M03/M03 A2958 RMK SLP033

TAF TAF CYNE
Valide du 19 à 13h jusqu'au 20 à 01h UTC


191238Z 1913/2001 34006KT P6SM SCT006 OVC040
TEMPO 1913/1919 2SM -SN BKN006 OVC040
PROB40 1913/1919 1SM -SN BR OVC004
FM191900 30008KT P6SM OVC030
TEMPO 1919/2001 4SM -SN SCT006 OVC012 RMK FCST BASED ON AUTO OBS. NXT FCST BY 191900Z



MET'MAP, la Météo Aéronautique d'un coup d'oeil ! - Copyright ORBIFLY Décembre 2007 - Disclaimer

ORBIFLY MET'MAP TEAM :

Programmation & Développement : Alexandra Zaïnal
Conception & Développement : Baudouin d'Aumeries
Co-Programmation & Développement : Marc-Olivier Méhu
Soutien technique & logistique : Manuel Goepfert

Contact : metmap@orbifly.com




SOURCES & CREDITS :

   NOAA       Earth
Advisory